Time;durP1;ratioP1;P1;durP2;ratioP2;P2;SDS_P1;SDS_P2;PMS_P1;PMS_P2;Temp;Humidity;BMP_temperature;BMP_pressure;BME280_temperature;BME280_humidity;BME280_pressure;Samples;Min_cycle;Max_cycle;Signal;HPM_P1;HPM_P2
2024/04/10 00:02:18;;;;;;;4.43;2.42;;;;;;;11.71;85.34;100540.53;5407783;26;20000;-70
2024/04/10 00:04:48;;;;;;;4.20;2.90;;;;;;;11.89;85.22;100543.72;5389949;26;20000;-70
2024/04/10 00:07:14;;;;;;;9.73;2.70;;;;;;;12.02;84.85;100546.75;5398397;26;20418;-71
2024/04/10 00:09:40;;;;;;;3.47;2.45;;;;;;;12.17;83.39;100546.38;5393312;26;20354;-70
2024/04/10 00:12:06;;;;;;;5.10;2.92;;;;;;;12.16;85.24;100553.22;5410493;26;20406;-70
2024/04/10 00:14:32;;;;;;;6.18;3.10;;;;;;;12.16;85.37;100540.28;5404219;26;20003;-68
2024/04/10 00:16:58;;;;;;;6.38;2.45;;;;;;;12.19;83.83;100555.06;5402287;26;20004;-69
2024/04/10 00:19:24;;;;;;;4.85;2.50;;;;;;;12.19;84.42;100549.91;5301003;26;20054;-71
2024/04/10 00:21:53;;;;;;;6.82;2.63;;;;;;;11.99;84.90;100547.53;5399096;26;20008;-70
2024/04/10 00:24:19;;;;;;;5.03;2.65;;;;;;;11.68;85.10;100530.09;5399457;26;19999;-69
2024/04/10 00:26:54;;;;;;;5.32;2.90;;;;;;;11.10;86.20;100494.56;5408497;26;20077;-70
2024/04/10 00:29:19;;;;;;;4.28;3.15;;;;;;;11.24;87.63;100549.31;5395621;26;20415;-70
2024/04/10 00:31:45;;;;;;;4.50;2.92;;;;;;;10.95;88.41;100535.31;5395246;26;20014;-69
2024/04/10 00:34:11;;;;;;;7.45;3.10;;;;;;;10.75;90.07;100547.50;5400293;26;20364;-70
2024/04/10 00:36:36;;;;;;;5.72;3.22;;;;;;;10.49;91.23;100529.31;5398539;26;19999;-70
2024/04/10 00:39:02;;;;;;;4.88;3.20;;;;;;;10.45;92.01;100541.22;5385321;26;19996;-70
2024/04/10 00:41:28;;;;;;;7.60;2.88;;;;;;;10.41;91.76;100541.06;5386630;26;20000;-70
2024/04/10 00:43:53;;;;;;;12.35;4.07;;;;;;;10.30;91.91;100527.72;5386903;26;20003;-70
2024/04/10 00:46:20;;;;;;;3.80;2.60;;;;;;;10.24;92.03;100535.22;5394573;26;20003;-70
2024/04/10 00:48:47;;;;;;;4.90;2.92;;;;;;;10.10;91.90;100540.69;5388630;26;20438;-70
2024/04/10 00:51:17;;;;;;;4.78;2.38;;;;;;;10.10;92.39;100542.41;5403503;26;20011;-68
2024/04/10 00:53:43;;;;;;;3.60;2.33;;;;;;;10.14;92.70;100536.53;5387762;26;20008;-68
2024/04/10 00:56:09;;;;;;;7.95;2.60;;;;;;;10.15;92.61;100530.56;5401931;26;20333;-67
2024/04/10 00:58:34;;;;;;;6.32;2.58;;;;;;;10.26;92.10;100511.22;5386121;26;20011;-68
2024/04/10 01:01:04;;;;;;;5.47;2.72;;;;;;;10.58;91.08;100531.38;5388637;26;19996;-69
2024/04/10 01:03:31;;;;;;;9.48;3.17;;;;;;;10.66;89.68;100530.84;5401698;26;20015;-69
2024/04/10 01:05:59;;;;;;;4.78;2.50;;;;;;;10.83;88.54;100536.63;5381089;26;20012;-68
2024/04/10 01:08:27;;;;;;;6.22;2.88;;;;;;;10.95;87.48;100515.56;5388135;26;20320;-69
2024/04/10 01:10:53;;;;;;;6.18;2.72;;;;;;;11.15;86.62;100526.59;5395755;26;20341;-68
2024/04/10 01:13:19;;;;;;;5.55;2.90;;;;;;;11.23;85.53;100513.94;5391228;26;20010;-71
2024/04/10 01:15:44;;;;;;;5.22;2.50;;;;;;;11.34;83.62;100524.66;5394137;26;20438;-69
2024/04/10 01:18:10;;;;;;;4.88;2.40;;;;;;;11.40;81.97;100519.72;5400943;26;20039;-69
2024/04/10 01:20:36;;;;;;;7.90;3.40;;;;;;;11.47;81.34;100513.03;5381560;26;20028;-69
2024/04/10 01:23:05;;;;;;;8.82;2.78;;;;;;;11.58;80.66;100519.44;5396160;26;20011;-69
2024/04/10 01:25:31;;;;;;;4.22;2.67;;;;;;;11.50;80.89;100515.69;5378498;26;20000;-70
2024/04/10 01:27:56;;;;;;;6.53;2.58;;;;;;;11.35;81.14;100489.34;5397511;26;20434;-72
2024/04/10 01:30:22;;;;;;;5.85;3.17;;;;;;;11.47;81.37;100513.03;5399404;26;20007;-67
2024/04/10 01:32:47;;;;;;;4.15;2.28;;;;;;;11.43;83.63;100499.13;5389905;26;20016;-73
2024/04/10 01:35:13;;;;;;;4.68;3.08;;;;;;;11.40;83.96;100519.72;5409692;26;20075;-72
2024/04/10 01:37:38;;;;;;;8.50;3.10;;;;;;;11.31;84.02;100516.78;5399080;26;20000;-71
2024/04/10 01:40:04;;;;;;;5.18;2.58;;;;;;;11.43;82.41;100513.75;5381456;26;20004;-69
2024/04/10 01:42:30;;;;;;;5.80;2.70;;;;;;;11.48;80.68;100501.88;5389159;26;20011;-71
2024/04/10 01:44:56;;;;;;;5.72;3.03;;;;;;;11.42;80.90;100501.66;5398536;26;20003;-71
2024/04/10 01:47:21;;;;;;;6.38;2.72;;;;;;;11.32;81.63;100505.63;5403773;26;20015;-70
2024/04/10 01:49:47;;;;;;;3.00;2.25;;;;;;;11.11;82.23;100490.25;5365728;26;19999;-72
2024/04/10 01:52:12;;;;;;;7.53;2.90;;;;;;;10.77;83.36;100463.25;5315338;26;20015;-70
2024/04/10 01:54:38;;;;;;;5.55;2.72;;;;;;;10.84;84.05;100519.44;5396026;26;19996;-68
2024/04/10 01:57:03;;;;;;;3.63;2.60;;;;;;;10.60;84.62;100491.00;5353564;26;20081;-68
2024/04/10 01:59:29;;;;;;;4.65;2.17;;;;;;;10.33;85.86;100509.75;5386551;26;20410;-68
2024/04/10 02:01:54;;;;;;;6.72;2.80;;;;;;;10.15;86.42;100515.97;5384015;26;20004;-69
2024/04/10 02:04:20;;;;;;;4.18;2.60;;;;;;;9.88;87.76;100514.06;5398772;26;20006;-66
2024/04/10 02:06:45;;;;;;;5.80;2.72;;;;;;;9.85;88.00;100506.19;5395286;26;20008;-68
2024/04/10 02:09:11;;;;;;;6.65;2.35;;;;;;;9.75;86.64;100518.66;5402774;26;20483;-70
2024/04/10 02:11:39;;;;;;;5.13;2.53;;;;;;;9.55;85.91;100505.81;5392922;26;20022;-69
2024/04/10 02:14:05;;;;;;;4.70;2.40;;;;;;;9.57;86.00;100482.69;5406018;26;20314;-70
2024/04/10 02:16:32;;;;;;;6.70;2.47;;;;;;;9.55;85.69;100462.88;5363091;26;20008;-70
2024/04/10 02:18:58;;;;;;;6.53;2.40;;;;;;;9.96;84.87;100495.44;5391609;26;20011;-71
2024/04/10 02:21:23;;;;;;;3.75;2.25;;;;;;;10.02;84.73;100508.56;5403235;26;20000;-70
2024/04/10 02:23:49;;;;;;;6.60;3.03;;;;;;;9.87;85.23;100507.13;5402392;26;20008;-71
2024/04/10 02:26:15;;;;;;;4.18;2.55;;;;;;;9.83;85.10;100502.69;5397156;26;20007;-70
2024/04/10 02:28:41;;;;;;;6.35;2.20;;;;;;;9.81;83.95;100496.56;5406584;26;20470;-71
2024/04/10 02:31:07;;;;;;;4.50;2.70;;;;;;;9.73;84.11;100513.41;5394135;26;20087;-70
2024/04/10 02:33:53;;;;;;;8.00;3.15;;;;;;;9.64;85.13;100518.19;5347488;26;20055;-68
2024/04/10 02:36:18;;;;;;;6.35;3.45;;;;;;;9.67;85.88;100510.56;5354609;26;20004;-67
2024/04/10 02:38:44;;;;;;;8.50;2.70;;;;;;;9.49;86.89;100508.13;5356442;26;20017;-68
2024/04/10 02:41:10;;;;;;;6.80;2.97;;;;;;;9.43;87.77;100507.88;5345997;26;20041;-69
2024/04/10 02:43:35;;;;;;;5.88;3.15;;;;;;;9.44;87.58;100505.34;5345426;26;20082;-68
2024/04/10 02:46:07;;;;;;;5.15;2.80;;;;;;;9.52;86.61;100529.75;5333843;26;20015;-68
2024/04/10 02:48:33;;;;;;;7.13;3.03;;;;;;;9.61;85.70;100529.28;5353567;26;20004;-70
2024/04/10 02:50:58;;;;;;;9.88;3.83;;;;;;;9.73;84.67;100531.47;5356660;26;20014;-68
2024/04/10 02:53:24;;;;;;;5.38;2.78;;;;;;;9.58;84.45;100529.13;5350157;26;20007;-68
2024/04/10 02:55:51;;;;;;;4.63;2.75;;;;;;;9.27;83.97;100486.63;5355184;26;20000;-68
2024/04/10 02:58:17;;;;;;;5.05;2.80;;;;;;;9.51;83.94;100540.88;5360660;26;20004;-68
2024/04/10 03:00:51;;;;;;;5.30;2.63;;;;;;;9.61;83.94;100544.72;5357980;26;20001;-69
2024/04/10 03:03:17;;;;;;;7.22;3.13;;;;;;;9.61;83.04;100537.00;5320900;26;20001;-71
2024/04/10 03:05:44;;;;;;;4.60;2.70;;;;;;;9.65;83.78;100550.91;5392333;26;20047;-70
2024/04/10 03:08:10;;;;;;;4.65;2.70;;;;;;;9.49;84.87;100550.25;5391549;26;19997;-67
2024/04/10 03:10:37;;;;;;;10.82;2.97;;;;;;;9.58;86.71;100559.19;5395103;26;20008;-73
2024/04/10 03:13:03;;;;;;;10.68;2.90;;;;;;;9.40;83.88;100565.31;5398450;26;20000;-71
2024/04/10 03:15:29;;;;;;;4.70;2.88;;;;;;;9.00;83.07;100556.72;5387490;26;20448;-68
2024/04/10 03:17:54;;;;;;;4.18;2.85;;;;;;;8.65;84.56;100549.97;5397098;26;20008;-67
2024/04/10 03:20:20;;;;;;;6.45;3.08;;;;;;;8.57;86.80;100559.91;5391192;26;20024;-69
2024/04/10 03:22:46;;;;;;;6.10;2.88;;;;;;;8.69;87.64;100573.34;5388058;26;20442;-70
2024/04/10 03:25:12;;;;;;;8.85;2.97;;;;;;;8.84;87.31;100567.16;5399028;26;19991;-68
2024/04/10 03:27:42;;;;;;;5.20;2.72;;;;;;;8.80;88.46;100576.41;5383796;26;20000;-69
2024/04/10 03:30:09;;;;;;;9.07;2.80;;;;;;;8.87;88.14;100583.63;5384665;26;20035;-67
2024/04/10 03:32:37;;;;;;;7.85;2.83;;;;;;;8.93;87.71;100584.69;5387888;26;21182;-67
2024/04/10 03:35:03;;;;;;;7.22;3.00;;;;;;;8.80;86.94;100571.28;5399513;26;20426;-70
2024/04/10 03:37:29;;;;;;;6.07;3.60;;;;;;;8.88;85.65;100585.38;5389876;26;20004;-73
2024/04/10 03:39:56;;;;;;;7.25;3.22;;;;;;;8.73;84.62;100549.53;5396991;26;20018;-67
2024/04/10 03:42:21;;;;;;;5.68;3.00;;;;;;;8.89;85.19;100575.94;5393901;26;19996;-69
2024/04/10 03:44:47;;;;;;;6.65;2.88;;;;;;;8.90;85.10;100585.44;5384943;26;20037;-69
2024/04/10 03:47:12;;;;;;;8.38;3.20;;;;;;;8.97;85.55;100582.34;5385425;26;20420;-71
2024/04/10 03:49:38;;;;;;;8.15;3.58;;;;;;;8.94;85.65;100579.63;5392535;26;20012;-67
2024/04/10 03:52:04;;;;;;;7.20;3.28;;;;;;;8.86;87.90;100587.00;5403049;26;19995;-71
2024/04/10 03:54:30;;;;;;;7.63;3.10;;;;;;;8.79;89.20;100577.22;5399389;26;19999;-71
2024/04/10 03:56:55;;;;;;;7.68;3.58;;;;;;;8.72;89.10;100555.47;5392566;26;20010;-68
2024/04/10 03:59:21;;;;;;;8.65;3.38;;;;;;;8.81;88.85;100572.13;5396576;26;20318;-67
2024/04/10 04:01:47;;;;;;;11.73;3.92;;;;;;;8.90;87.21;100593.16;5393264;26;20420;-67
2024/04/10 04:04:13;;;;;;;7.63;3.15;;;;;;;8.91;86.81;100574.34;5404018;26;19999;-68
2024/04/10 04:06:39;;;;;;;9.35;3.40;;;;;;;8.93;86.15;100569.25;5358276;26;19996;-68
2024/04/10 04:09:05;;;;;;;9.02;3.53;;;;;;;8.72;85.25;100545.19;5361969;26;20012;-72
2024/04/10 04:11:31;;;;;;;7.85;3.35;;;;;;;8.79;84.17;100590.09;5398238;26;20004;-68
2024/04/10 04:13:57;;;;;;;6.65;3.22;;;;;;;8.46;85.02;100587.72;5404976;26;20015;-70
2024/04/10 04:16:23;;;;;;;7.75;3.35;;;;;;;8.44;85.58;100586.72;5393891;26;20000;-71
2024/04/10 04:18:49;;;;;;;7.50;3.15;;;;;;;8.61;85.91;100596.97;5398253;26;19995;-70
2024/04/10 04:21:14;;;;;;;6.43;3.53;;;;;;;8.66;86.53;100603.19;5395627;26;20069;-69
2024/04/10 04:23:42;;;;;;;6.78;2.88;;;;;;;8.56;85.87;100592.50;5389954;26;20365;-68
2024/04/10 04:26:07;;;;;;;6.97;3.55;;;;;;;8.24;86.33;100566.06;5397412;26;20015;-71
2024/04/10 04:28:33;;;;;;;7.18;2.80;;;;;;;8.25;86.52;100574.69;5384923;26;20338;-69
2024/04/10 04:30:58;;;;;;;8.23;3.42;;;;;;;8.47;87.29;100604.91;5386746;26;20005;-67
2024/04/10 04:33:24;;;;;;;6.60;3.35;;;;;;;8.18;88.15;100563.22;5401483;26;20372;-68
2024/04/10 04:35:49;;;;;;;10.63;3.08;;;;;;;8.37;89.07;100625.81;5388865;26;20032;-74
2024/04/10 04:38:15;;;;;;;7.57;3.20;;;;;;;8.27;89.74;100609.06;5391081;26;20044;-70
2024/04/10 04:40:41;;;;;;;5.47;3.40;;;;;;;8.39;90.43;100614.81;5387413;26;20073;-68
2024/04/10 04:43:10;;;;;;;5.75;3.53;;;;;;;8.51;91.57;100616.22;5389371;26;20004;-72
2024/04/10 04:45:39;;;;;;;5.38;3.35;;;;;;;8.25;92.22;100578.13;5365074;26;19996;-69
2024/04/10 04:48:08;;;;;;;;;;;;;;;8.53;93.21;100618.06;5396767;26;20004;-71
2024/04/10 04:50:35;;;;;;;10.18;3.90;;;;;;;8.26;94.08;100587.63;5390971;26;19925;-68
2024/04/10 04:53:01;;;;;;;13.20;3.50;;;;;;;8.46;94.82;100630.53;5406631;26;20330;-69
2024/04/10 04:55:27;;;;;;;9.23;3.20;;;;;;;8.44;95.79;100635.63;5372189;26;19995;-70
2024/04/10 04:57:53;;;;;;;6.90;3.72;;;;;;;8.26;95.96;100587.63;5394526;26;19999;-71
2024/04/10 05:00:20;;;;;;;7.00;3.78;;;;;;;8.41;95.60;100610.63;5399319;26;19996;-67
2024/04/10 05:02:49;;;;;;;6.15;3.70;;;;;;;8.48;96.07;100618.66;5393765;26;20076;-71
2024/04/10 05:05:18;;;;;;;7.87;3.50;;;;;;;8.53;95.87;100620.63;5393242;26;20007;-67
2024/04/10 05:07:44;;;;;;;8.55;4.13;;;;;;;8.45;95.83;100585.03;5400947;26;19999;-71
2024/04/10 05:10:11;;;;;;;8.80;4.00;;;;;;;8.71;96.39;100645.47;5398105;26;19996;-68
2024/04/10 05:12:38;;;;;;;5.65;3.72;;;;;;;8.56;99.85;100640.47;5399330;26;20030;-68
2024/04/10 05:15:06;;;;;;;9.20;3.90;;;;;;;8.43;99.54;100605.53;5369572;26;19996;-71
2024/04/10 05:17:32;;;;;;;6.68;3.85;;;;;;;8.70;100.00;100626.59;5400693;26;20011;-68
2024/04/10 05:19:58;;;;;;;8.10;4.20;;;;;;;8.86;99.95;100648.78;5400786;26;20006;-69
2024/04/10 05:22:23;;;;;;;8.15;4.13;;;;;;;9.02;100.00;100641.75;5381242;26;20402;-68
2024/04/10 05:24:49;;;;;;;8.20;4.63;;;;;;;8.50;99.63;100543.31;5400500;26;19996;-67
2024/04/10 05:27:25;;;;;;;5.97;4.15;;;;;;;9.06;100.00;100633.38;5399942;26;20004;-71
2024/04/10 05:29:59;;;;;;;5.30;4.00;;;;;;;9.15;98.31;100641.50;5405389;26;20005;-67
2024/04/10 05:32:26;;;;;;;5.82;3.78;;;;;;;9.06;97.76;100628.22;5381485;26;20173;-68
2024/04/10 05:34:52;;;;;;;7.53;4.35;;;;;;;9.29;98.44;100654.16;5368222;26;19995;-69
2024/04/10 05:37:18;;;;;;;9.50;4.25;;;;;;;9.32;98.59;100657.75;5400709;26;20003;-68
2024/04/10 05:39:44;;;;;;;6.53;4.70;;;;;;;9.31;100.00;100647.34;5389711;26;20462;-68
2024/04/10 05:42:09;;;;;;;6.82;4.28;;;;;;;9.42;100.00;100660.72;5405214;26;20004;-69
2024/04/10 05:44:35;;;;;;;7.60;4.70;;;;;;;9.47;100.00;100649.81;5389221;26;20052;-68
2024/04/10 05:47:01;;;;;;;6.93;4.50;;;;;;;9.35;100.00;100611.50;5400549;26;20343;-67
2024/04/10 05:49:30;;;;;;;6.43;4.60;;;;;;;9.64;100.00;100641.94;5396196;26;20000;-68
2024/04/10 05:51:55;;;;;;;8.52;5.13;;;;;;;9.93;100.00;100660.34;5390080;26;20007;-69
2024/04/10 05:54:21;;;;;;;8.00;5.00;;;;;;;10.11;100.00;100660.25;5365467;26;20004;-68
2024/04/10 05:56:46;;;;;;;8.00;5.03;;;;;;;10.25;100.00;100653.94;5367239;26;20023;-68
2024/04/10 05:59:11;;;;;;;9.55;5.10;;;;;;;10.52;100.00;100663.69;5400048;26;20010;-69
2024/04/10 06:01:38;;;;;;;7.00;5.05;;;;;;;10.71;99.40;100657.53;5398058;26;20000;-68
2024/04/10 06:04:03;;;;;;;7.72;4.75;;;;;;;10.84;99.08;100654.63;5398335;26;20429;-67
2024/04/10 06:06:29;;;;;;;7.53;4.63;;;;;;;10.99;99.31;100656.00;5399531;26;19996;-71
2024/04/10 06:08:54;;;;;;;9.48;5.00;;;;;;;11.15;98.86;100652.31;5394412;26;20003;-70
2024/04/10 06:11:20;;;;;;;9.65;4.80;;;;;;;11.29;97.53;100653.72;5390456;26;20006;-70
2024/04/10 06:13:49;;;;;;;6.07;4.50;;;;;;;11.42;98.34;100647.28;5399031;26;20000;-67
2024/04/10 06:16:15;;;;;;;9.50;5.05;;;;;;;11.35;97.96;100645.28;5395906;26;20007;-69
2024/04/10 06:18:41;;;;;;;7.63;5.50;;;;;;;11.25;99.43;100648.38;5382671;26;19999;-73
2024/04/10 06:21:07;;;;;;;7.43;5.68;;;;;;;10.88;98.98;100616.88;5397574;26;20016;-70
2024/04/10 06:23:33;;;;;;;7.80;4.65;;;;;;;11.33;98.66;100660.75;5397449;26;20004;-70
2024/04/10 06:25:59;;;;;;;8.75;5.40;;;;;;;11.40;98.14;100658.41;5384592;26;20330;-73
2024/04/10 06:28:25;;;;;;;10.02;5.28;;;;;;;11.58;97.52;100658.19;5395441;26;20007;-68
2024/04/10 06:31:04;;;;;;;10.40;5.68;;;;;;;11.57;96.64;100625.41;5390956;26;20003;-69
2024/04/10 06:33:33;;;;;;;7.13;5.25;;;;;;;11.88;95.24;100668.72;5396248;26;20004;-70
2024/04/10 06:36:05;;;;;;;33.88;6.82;;;;;;;11.99;94.26;100658.78;5390172;26;19996;-68
2024/04/10 06:38:31;;;;;;;8.25;5.13;;;;;;;12.26;93.73;100670.88;5396110;26;20350;-71
2024/04/10 06:41:01;;;;;;;12.05;5.25;;;;;;;12.19;92.13;100659.47;5394850;26;19995;-68
2024/04/10 06:43:28;;;;;;;10.23;5.38;;;;;;;12.36;92.51;100672.97;5395123;26;20000;-69
2024/04/10 06:45:56;;;;;;;8.15;5.07;;;;;;;12.08;91.12;100637.53;5401302;26;20072;-69
2024/04/10 06:48:22;;;;;;;8.02;5.03;;;;;;;12.65;90.69;100673.03;5393284;26;19996;-69
2024/04/10 06:50:48;;;;;;;8.10;4.63;;;;;;;12.78;89.71;100658.75;5385859;26;20065;-72
2024/04/10 06:53:15;;;;;;;7.57;5.15;;;;;;;12.85;90.61;100658.09;5396300;26;20003;-70
2024/04/10 06:55:40;;;;;;;6.88;4.90;;;;;;;12.95;90.64;100661.88;5384173;26;20011;-73
2024/04/10 06:58:06;;;;;;;8.00;4.63;;;;;;;12.86;90.45;100659.88;5397950;26;19993;-69
2024/04/10 07:00:33;;;;;;;7.32;4.65;;;;;;;12.93;91.89;100659.22;5399155;26;19992;-68
2024/04/10 07:02:58;;;;;;;7.15;4.53;;;;;;;12.97;89.21;100657.59;5393203;26;20003;-70
2024/04/10 07:05:24;;;;;;;12.20;4.43;;;;;;;13.17;88.50;100662.50;5395575;26;20010;-69
2024/04/10 07:07:50;;;;;;;7.20;5.50;;;;;;;13.07;87.20;100636.31;5393241;26;20011;-72
2024/04/10 07:10:15;;;;;;;9.80;5.28;;;;;;;13.46;87.44;100662.47;5394636;26;19992;-71
2024/04/10 07:12:41;;;;;;;10.00;5.22;;;;;;;13.67;88.25;100657.00;5399511;26;19992;-70
2024/04/10 07:15:07;;;;;;;7.15;4.07;;;;;;;13.71;83.00;100646.75;5399119;26;20011;-70
2024/04/10 07:17:34;;;;;;;6.45;3.85;;;;;;;13.85;82.07;100657.50;5396504;26;20003;-73
2024/04/10 07:19:59;;;;;;;7.50;3.40;;;;;;;13.85;79.64;100654.91;5395394;26;19999;-74
2024/04/10 07:22:25;;;;;;;7.80;3.08;;;;;;;13.88;76.98;100657.59;5395263;26;20065;-69
2024/04/10 07:24:50;;;;;;;7.53;3.50;;;;;;;14.09;76.98;100658.97;5389542;26;20008;-75
2024/04/10 07:27:16;;;;;;;15.07;3.45;;;;;;;14.35;78.80;100643.19;5401922;26;20444;-71
2024/04/10 07:29:44;;;;;;;8.55;3.05;;;;;;;14.47;79.38;100650.41;5398485;26;20007;-69
2024/04/10 07:32:10;;;;;;;7.13;2.75;;;;;;;14.47;74.92;100642.63;5398776;26;19996;-68
2024/04/10 07:34:36;;;;;;;6.85;2.90;;;;;;;14.56;72.56;100653.22;5398343;26;20004;-68
2024/04/10 07:37:03;;;;;;;11.32;2.88;;;;;;;14.34;74.16;100611.16;5392490;26;20000;-74
2024/04/10 07:39:29;;;;;;;6.57;2.70;;;;;;;14.61;74.76;100645.53;5402238;26;19999;-73
2024/04/10 07:41:54;;;;;;;4.53;2.40;;;;;;;14.51;74.13;100613.25;5385557;26;20095;-70
2024/04/10 07:44:20;;;;;;;4.70;2.67;;;;;;;15.03;73.08;100642.16;5398930;26;20049;-70
2024/04/10 07:46:46;;;;;;;5.80;2.80;;;;;;;15.04;73.86;100600.59;5360966;26;20007;-70
2024/04/10 07:49:11;;;;;;;8.25;2.90;;;;;;;15.30;71.87;100633.16;5394063;26;20093;-70
2024/04/10 07:51:37;;;;;;;6.32;3.25;;;;;;;15.46;73.29;100640.44;5394685;26;20012;-70
2024/04/10 07:54:02;;;;;;;7.68;2.88;;;;;;;15.66;70.28;100633.03;5401363;26;20004;-69
2024/04/10 07:56:48;;;;;;;9.35;2.85;;;;;;;15.69;68.98;100632.22;5321361;26;20013;-69
2024/04/10 07:59:13;;;;;;;6.53;2.65;;;;;;;15.77;73.17;100625.41;5328572;26;20001;-71
2024/04/10 08:01:39;;;;;;;8.20;2.50;;;;;;;16.01;72.53;100630.22;5324298;26;20044;-70
2024/04/10 08:04:06;;;;;;;7.82;2.90;;;;;;;16.30;69.30;100627.22;5320504;26;20021;-72
2024/04/10 08:06:36;;;;;;;11.85;4.03;;;;;;;16.38;68.41;100629.06;5328458;26;20016;-73
2024/04/10 08:09:03;;;;;;;10.95;4.00;;;;;;;16.45;65.34;100629.19;5295282;26;20079;-70
2024/04/10 08:11:28;;;;;;;9.00;3.38;;;;;;;16.38;66.04;100603.00;5304827;27;20008;-70
2024/04/10 08:13:54;;;;;;;9.50;3.50;;;;;;;16.77;67.67;100622.66;5309749;27;19997;-70
2024/04/10 08:16:20;;;;;;;17.48;3.50;;;;;;;16.88;66.97;100620.22;5309624;27;19998;-73
2024/04/10 08:18:45;;;;;;;11.93;3.13;;;;;;;16.96;67.71;100616.03;5309422;27;20500;-69
2024/04/10 08:21:13;;;;;;;16.67;3.45;;;;;;;17.09;66.07;100614.44;5312808;26;20005;-69
2024/04/10 08:23:40;;;;;;;9.57;3.03;;;;;;;17.10;65.00;100621.41;5317673;26;20016;-69
2024/04/10 08:26:13;;;;;;;11.50;3.25;;;;;;;17.21;64.71;100608.47;5318106;26;20001;-69
2024/04/10 08:28:45;;;;;;;11.90;3.60;;;;;;;17.47;62.41;100606.19;5381751;26;20000;-71
2024/04/10 08:31:31;;;;;;;10.73;3.67;;;;;;;17.37;60.32;100562.56;5385688;26;20028;-69
2024/04/10 08:33:57;;;;;;;8.57;3.00;;;;;;;17.81;59.09;100605.63;5316105;26;20356;-69
2024/04/10 08:36:23;;;;;;;8.10;2.90;;;;;;;17.99;58.84;100597.13;5311335;26;21934;-69
2024/04/10 08:38:49;;;;;;;5.30;2.50;;;;;;;18.02;57.75;100589.31;5311218;26;20005;-71
2024/04/10 08:41:22;;;;;;;7.22;3.00;;;;;;;18.20;57.22;100594.69;5343318;26;20041;-70
2024/04/10 08:43:50;;;;;;;10.90;2.80;;;;;;;18.27;60.02;100578.19;5342876;26;20459;-70
2024/04/10 08:46:18;;;;;;;5.85;2.63;;;;;;;18.57;54.80;100583.63;5343285;26;20008;-74
2024/04/10 08:48:44;;;;;;;6.13;2.45;;;;;;;18.72;57.33;100595.91;5342562;26;20020;-69
2024/04/10 08:51:15;;;;;;;7.00;2.55;;;;;;;18.95;54.84;100576.84;5286340;26;20004;-69
2024/04/10 08:53:43;;;;;;;5.38;2.45;;;;;;;19.11;52.08;100575.19;5287714;26;20428;-72
2024/04/10 08:56:14;;;;;;;9.02;2.55;;;;;;;19.30;50.54;100592.69;5343175;26;20072;-69
2024/04/10 08:58:40;;;;;;;4.90;2.33;;;;;;;19.44;53.06;100581.38;5343232;26;20012;-69
2024/04/10 09:01:06;;;;;;;6.82;2.70;;;;;;;19.60;49.69;100577.94;5340358;26;19997;-71
2024/04/10 09:03:33;;;;;;;11.13;2.50;;;;;;;19.69;49.50;100577.06;5313760;26;20075;-73
2024/04/10 09:06:07;;;;;;;11.82;2.53;;;;;;;19.62;46.81;100543.88;5410372;26;20011;-74
2024/04/10 09:08:33;;;;;;;5.90;2.70;;;;;;;19.98;46.69;100576.22;5416486;26;20007;-73
2024/04/10 09:11:00;;;;;;;6.72;2.30;;;;;;;20.13;44.80;100581.47;5419111;26;20041;-71
2024/04/10 09:13:25;;;;;;;9.73;2.50;;;;;;;20.14;46.18;100569.25;5405641;26;20323;-70
2024/04/10 09:15:58;;;;;;;6.75;2.38;;;;;;;20.18;46.13;100553.47;5408780;26;20011;-69
2024/04/10 09:18:24;;;;;;;8.48;2.03;;;;;;;20.37;43.32;100569.19;5416333;26;20018;-70
2024/04/10 09:20:50;;;;;;;8.52;2.50;;;;;;;20.45;42.93;100561.31;5415822;26;20319;-69
2024/04/10 09:23:15;;;;;;;12.32;2.65;;;;;;;20.56;43.17;100563.91;5406649;26;20014;-73
2024/04/10 09:25:44;;;;;;;6.57;2.22;;;;;;;20.73;43.37;100562.13;5414623;26;20003;-69
2024/04/10 09:28:12;;;;;;;5.30;1.75;;;;;;;20.86;39.38;100552.47;5414297;26;20089;-69
2024/04/10 09:30:37;;;;;;;4.45;2.00;;;;;;;20.81;40.08;100534.13;5384756;26;20003;-69
2024/04/10 09:33:04;;;;;;;3.22;1.65;;;;;;;21.02;40.80;100548.00;5415782;26;20098;-71
2024/04/10 09:35:31;;;;;;;3.00;1.73;;;;;;;21.21;40.86;100553.16;5415652;26;20004;-74
2024/04/10 09:38:00;;;;;;;7.15;1.50;;;;;;;21.25;37.10;100560.16;5415807;26;20007;-69
2024/04/10 09:40:28;;;;;;;5.82;2.20;;;;;;;21.30;37.63;100558.38;5415998;26;20014;-68
2024/04/10 09:43:05;;;;;;;5.32;1.67;;;;;;;21.33;37.90;100538.22;5384417;26;20411;-70
2024/04/10 09:45:36;;;;;;;7.10;1.90;;;;;;;21.56;41.32;100557.34;5415623;26;20015;-68
2024/04/10 09:48:08;;;;;;;5.93;1.67;;;;;;;21.73;40.51;100560.75;5415456;26;20036;-72
2024/04/10 09:50:36;;;;;;;4.47;1.70;;;;;;;21.91;39.31;100558.84;5393161;26;20017;-68
2024/04/10 09:53:03;;;;;;;7.57;1.75;;;;;;;22.07;38.08;100542.06;5415843;26;20004;-70
2024/04/10 09:55:32;;;;;;;4.93;1.52;;;;;;;22.16;37.29;100535.84;5415884;26;20507;-69
2024/04/10 09:58:00;;;;;;;4.40;1.93;;;;;;;22.24;36.49;100522.59;5415413;26;20446;-70
2024/04/10 10:00:25;;;;;;;5.60;2.10;;;;;;;22.27;35.35;100507.66;5415910;26;20008;-69
2024/04/10 10:03:02;;;;;;;7.63;2.40;;;;;;;22.52;35.63;100533.72;5415297;26;20017;-70
2024/04/10 10:05:28;;;;;;;4.50;1.75;;;;;;;22.71;38.81;100538.78;5320610;26;20086;-70
2024/04/10 10:08:02;;;;;;;5.22;1.58;;;;;;;22.91;37.10;100528.84;5380811;26;20012;-70
2024/04/10 10:10:30;;;;;;;2.92;1.48;;;;;;;23.01;33.71;100534.88;5380706;26;20003;-73
2024/04/10 10:13:06;;;;;;;4.30;1.50;;;;;;;23.16;35.52;100535.59;5380473;26;20427;-69
2024/04/10 10:15:33;;;;;;;3.40;1.40;;;;;;;23.26;32.60;100537.19;5319880;26;20003;-70
2024/04/10 10:17:58;;;;;;;3.08;1.50;;;;;;;23.37;36.60;100531.78;5342562;26;20039;-71
2024/04/10 10:20:24;;;;;;;3.22;1.40;;;;;;;23.40;35.26;100531.72;5332610;26;20000;-70
2024/04/10 10:23:03;;;;;;;4.80;1.38;;;;;;;22.83;33.34;100491.25;5377444;26;20127;-69
2024/04/10 10:25:29;;;;;;;5.32;1.63;;;;;;;23.32;35.47;100530.97;5377551;26;20417;-74
2024/04/10 10:28:08;;;;;;;3.65;1.75;;;;;;;23.45;35.43;100529.03;5377309;26;20018;-70
2024/04/10 10:30:34;;;;;;;2.77;1.20;;;;;;;23.48;36.46;100534.22;5377616;26;20006;-75
2024/04/10 10:33:06;;;;;;;4.05;1.48;;;;;;;23.57;34.09;100526.19;5377309;26;20004;-72
2024/04/10 10:35:32;;;;;;;6.00;1.38;;;;;;;23.67;32.91;100526.91;5377183;26;20102;-70
2024/04/10 10:38:01;;;;;;;6.60;1.70;;;;;;;23.89;36.85;100527.44;5377293;26;20342;-69
2024/04/10 10:40:27;;;;;;;2.38;1.38;;;;;;;23.92;36.77;100518.63;5376949;26;19992;-70
2024/04/10 10:43:03;;;;;;;2.42;1.30;;;;;;;24.08;35.02;100522.72;5377122;26;20007;-70
2024/04/10 10:45:30;;;;;;;3.58;1.50;;;;;;;24.18;34.31;100526.06;5377222;26;19997;-74
2024/04/10 10:47:56;;;;;;;6.25;1.70;;;;;;;24.36;34.02;100520.44;5377384;26;20000;-70
2024/04/10 10:50:21;;;;;;;6.40;1.58;;;;;;;24.58;33.17;100525.28;5319408;26;20046;-69
2024/04/10 10:52:47;;;;;;;4.63;1.73;;;;;;;24.69;32.84;100520.69;5379862;26;20007;-71
2024/04/10 10:55:14;;;;;;;7.07;1.83;;;;;;;24.62;31.64;100500.56;5379886;26;19996;-71
2024/04/10 10:57:39;;;;;;;3.90;1.60;;;;;;;24.69;33.42;100515.41;5319883;26;19992;-75
2024/04/10 11:00:15;;;;;;;3.88;1.60;;;;;;;24.64;35.09;100511.97;5391739;26;20014;-74
2024/04/10 11:02:44;;;;;;;4.72;1.58;;;;;;;24.63;33.73;100489.09;5397115;26;20006;-70
2024/04/10 11:05:14;;;;;;;5.28;1.25;;;;;;;24.88;30.82;100507.09;5393873;26;19996;-71
2024/04/10 11:07:42;;;;;;;3.72;1.77;;;;;;;24.81;33.34;100497.56;5354271;26;20551;-75
2024/04/10 11:10:10;;;;;;;3.67;1.63;;;;;;;25.02;33.57;100527.91;5415266;26;20395;-70
2024/04/10 11:12:35;;;;;;;6.40;2.22;;;;;;;25.02;32.79;100505.03;5415288;26;20020;-70
2024/04/10 11:15:09;;;;;;;3.13;1.50;;;;;;;25.08;30.48;100497.88;5415452;26;20006;-76
2024/04/10 11:17:35;;;;;;;3.45;1.80;;;;;;;25.28;33.32;100508.81;5415437;26;20000;-75
2024/04/10 11:20:00;;;;;;;3.60;1.60;;;;;;;25.07;31.99;100475.84;5415098;26;20015;-70
2024/04/10 11:22:27;;;;;;;5.20;1.40;;;;;;;25.32;32.02;100497.28;5410946;26;19999;-76
2024/04/10 11:24:55;;;;;;;2.50;1.27;;;;;;;25.45;28.53;100494.38;5324579;26;20007;-73
2024/04/10 11:27:21;;;;;;;3.00;1.25;;;;;;;25.54;31.26;100494.16;5415000;26;20334;-71